Terminal Aerodrome Forecast
Issued by NWS Birmingham, AL

Home | Current Version | Previous Version | Text Only | Print | Product List | Glossary On
Versions: 1 2 3 4 5 6 7 8 9 10 11 12 13 14 15
134
FTUS44 KBMX 270533
TAFBHM
TAF
KBHM 270533Z 2706/2806 16014G21KT P6SM VCTS SCT015CB BKN035
     FM270800 17017G27KT 4SM TSRA BKN008 BKN015CB OVC100
     FM271100 20012KT P6SM SCT008 OVC012
     FM271500 25008KT P6SM BKN015
     FM271900 25009KT P6SM SKC
     FM280100 VRB03KT P6SM SKC=

USA.gov is the U.S. government's official web portal to all federal, state and local government web resources and services.